sensor_id;sensor_type;location;lat;lon;timestamp;pressure;altitude;pressure_sealevel;temperature;humidity
72370;BME280;60343;-32.030;115.880;2023-07-20T00:00:23;102588.63;;;10.38;88.07
72370;BME280;60343;-32.030;115.880;2023-07-20T00:03:12;102591.81;;;10.64;87.94
72370;BME280;60343;-32.030;115.880;2023-07-20T00:05:51;102590.19;;;10.93;85.53
72370;BME280;60343;-32.030;115.880;2023-07-20T00:08:27;102599.00;;;11.05;85.10
72370;BME280;60343;-32.030;115.880;2023-07-20T00:11:02;102608.41;;;11.20;82.55
72370;BME280;60343;-32.030;115.880;2023-07-20T00:13:43;102609.72;;;11.26;82.10
72370;BME280;60343;-32.030;115.880;2023-07-20T00:16:19;102611.16;;;11.30;80.67
72370;BME280;60343;-32.030;115.880;2023-07-20T00:18:55;102607.22;;;11.34;81.01
72370;BME280;60343;-32.030;115.880;2023-07-20T00:21:30;102606.47;;;11.32;81.07
72370;BME280;60343;-32.030;115.880;2023-07-20T00:24:06;102622.44;;;11.33;81.56
72370;BME280;60343;-32.030;115.880;2023-07-20T00:26:41;102625.69;;;11.37;80.52
72370;BME280;60343;-32.030;115.880;2023-07-20T00:29:22;102635.72;;;11.35;81.85
72370;BME280;60343;-32.030;115.880;2023-07-20T00:31:57;102635.72;;;11.35;82.61
72370;BME280;60343;-32.030;115.880;2023-07-20T00:34:33;102629.69;;;11.42;80.84
72370;BME280;60343;-32.030;115.880;2023-07-20T00:37:08;102632.81;;;11.47;81.13
72370;BME280;60343;-32.030;115.880;2023-07-20T00:39:44;102631.78;;;11.39;81.56
72370;BME280;60343;-32.030;115.880;2023-07-20T00:42:20;102639.72;;;11.19;82.89
72370;BME280;60343;-32.030;115.880;2023-07-20T00:45:01;102651.41;;;11.18;83.03
72370;BME280;60343;-32.030;115.880;2023-07-20T00:47:37;102642.41;;;11.19;82.72
72370;BME280;60343;-32.030;115.880;2023-07-20T00:50:13;102654.03;;;11.30;83.40
72370;BME280;60343;-32.030;115.880;2023-07-20T00:52:50;102651.03;;;12.14;81.17
72370;BME280;60343;-32.030;115.880;2023-07-20T00:55:25;102655.63;;;13.10;77.41
72370;BME280;60343;-32.030;115.880;2023-07-20T00:58:01;102657.91;;;13.24;74.45
72370;BME280;60343;-32.030;115.880;2023-07-20T01:00:43;102658.31;;;13.75;73.43
72370;BME280;60343;-32.030;115.880;2023-07-20T01:03:18;102656.41;;;14.23;71.24
72370;BME280;60343;-32.030;115.880;2023-07-20T01:05:57;102657.75;;;14.54;69.98
72370;BME280;60343;-32.030;115.880;2023-07-20T01:08:39;102659.69;;;14.62;69.49
72370;BME280;60343;-32.030;115.880;2023-07-20T01:11:20;102654.94;;;14.73;68.55
72370;BME280;60343;-32.030;115.880;2023-07-20T01:13:58;102650.91;;;14.95;67.87
72370;BME280;60343;-32.030;115.880;2023-07-20T01:16:40;102656.28;;;15.13;67.11
72370;BME280;60343;-32.030;115.880;2023-07-20T01:19:17;102660.97;;;15.28;67.22
72370;BME280;60343;-32.030;115.880;2023-07-20T01:21:57;102664.88;;;15.34;65.05
72370;BME280;60343;-32.030;115.880;2023-07-20T01:33:18;102669.91;;;16.22;63.27
72370;BME280;60343;-32.030;115.880;2023-07-20T01:35:56;102670.38;;;16.60;62.54
72370;BME280;60343;-32.030;115.880;2023-07-20T01:38:33;102669.28;;;15.95;63.79
72370;BME280;60343;-32.030;115.880;2023-07-20T01:41:09;102670.09;;;15.53;66.11
72370;BME280;60343;-32.030;115.880;2023-07-20T01:43:45;102671.13;;;16.28;64.22
72370;BME280;60343;-32.030;115.880;2023-07-20T01:46:21;102667.19;;;16.81;62.73
72370;BME280;60343;-32.030;115.880;2023-07-20T01:49:02;102670.41;;;17.33;61.54
72370;BME280;60343;-32.030;115.880;2023-07-20T01:51:37;102673.22;;;17.72;59.22
72370;BME280;60343;-32.030;115.880;2023-07-20T01:54:13;102670.84;;;18.16;57.85
72370;BME280;60343;-32.030;115.880;2023-07-20T01:56:49;102681.16;;;17.81;57.67
72370;BME280;60343;-32.030;115.880;2023-07-20T01:59:24;102683.94;;;17.25;59.29
72370;BME280;60343;-32.030;115.880;2023-07-20T02:02:00;102686.28;;;16.63;61.56
72370;BME280;60343;-32.030;115.880;2023-07-20T02:04:41;102683.19;;;16.58;61.84
72370;BME280;60343;-32.030;115.880;2023-07-20T02:07:16;102668.22;;;17.20;60.16
72370;BME280;60343;-32.030;115.880;2023-07-20T02:09:52;102680.44;;;17.95;58.35
72370;BME280;60343;-32.030;115.880;2023-07-20T02:12:27;102676.75;;;18.58;56.67
72370;BME280;60343;-32.030;115.880;2023-07-20T02:15:03;102667.75;;;18.27;56.35
72370;BME280;60343;-32.030;115.880;2023-07-20T02:17:38;102668.28;;;18.53;55.68
72370;BME280;60343;-32.030;115.880;2023-07-20T02:20:20;102669.28;;;18.52;56.38
72370;BME280;60343;-32.030;115.880;2023-07-20T02:22:56;102674.59;;;18.76;55.49
72370;BME280;60343;-32.030;115.880;2023-07-20T02:25:31;102680.22;;;18.75;55.55
72370;BME280;60343;-32.030;115.880;2023-07-20T02:28:08;102668.06;;;18.32;56.05
72370;BME280;60343;-32.030;115.880;2023-07-20T02:30:44;102676.09;;;18.48;55.23
72370;BME280;60343;-32.030;115.880;2023-07-20T02:33:19;102676.09;;;18.48;55.57
72370;BME280;60343;-32.030;115.880;2023-07-20T02:36:00;102676.34;;;18.69;54.68
72370;BME280;60343;-32.030;115.880;2023-07-20T02:38:36;102684.06;;;18.80;55.12
72370;BME280;60343;-32.030;115.880;2023-07-20T02:41:11;102669.53;;;18.96;55.22
72370;BME280;60343;-32.030;115.880;2023-07-20T02:43:47;102681.16;;;18.82;55.18
72370;BME280;60343;-32.030;115.880;2023-07-20T02:46:22;102674.13;;;18.96;54.77
72370;BME280;60343;-32.030;115.880;2023-07-20T02:48:58;102675.78;;;19.19;54.39
72370;BME280;60343;-32.030;115.880;2023-07-20T02:51:39;102669.81;;;19.01;52.90
72370;BME280;60343;-32.030;115.880;2023-07-20T02:54:14;102672.84;;;18.30;55.61
72370;BME280;60343;-32.030;115.880;2023-07-20T02:56:50;102669.50;;;17.73;57.17
72370;BME280;60343;-32.030;115.880;2023-07-20T02:59:25;102661.94;;;17.11;59.24
72370;BME280;60343;-32.030;115.880;2023-07-20T03:02:00;102670.06;;;16.79;60.76
72370;BME280;60343;-32.030;115.880;2023-07-20T03:04:37;102671.91;;;16.62;60.95
72370;BME280;60343;-32.030;115.880;2023-07-20T03:07:18;102670.56;;;16.58;62.20
72370;BME280;60343;-32.030;115.880;2023-07-20T03:09:54;102665.69;;;16.78;61.78
72370;BME280;60343;-32.030;115.880;2023-07-20T03:12:29;102657.91;;;16.99;61.53
72370;BME280;60343;-32.030;115.880;2023-07-20T03:15:05;102655.00;;;17.01;62.03
72370;BME280;60343;-32.030;115.880;2023-07-20T03:17:41;102655.19;;;16.91;60.89
72370;BME280;60343;-32.030;115.880;2023-07-20T03:20:16;102653.84;;;17.11;60.32
72370;BME280;60343;-32.030;115.880;2023-07-20T03:22:57;102645.91;;;17.10;59.93
72370;BME280;60343;-32.030;115.880;2023-07-20T03:25:33;102647.25;;;17.14;60.39
72370;BME280;60343;-32.030;115.880;2023-07-20T03:28:09;102640.50;;;17.10;59.92
72370;BME280;60343;-32.030;115.880;2023-07-20T03:30:44;102631.94;;;17.53;59.03
72370;BME280;60343;-32.030;115.880;2023-07-20T03:33:20;102632.94;;;18.08;57.07
72370;BME280;60343;-32.030;115.880;2023-07-20T03:35:55;102634.13;;;18.36;57.92
72370;BME280;60343;-32.030;115.880;2023-07-20T03:38:37;102633.19;;;18.60;57.41
72370;BME280;60343;-32.030;115.880;2023-07-20T03:41:12;102624.41;;;18.72;55.78
72370;BME280;60343;-32.030;115.880;2023-07-20T03:43:47;102620.00;;;18.71;54.33
72370;BME280;60343;-32.030;115.880;2023-07-20T03:46:23;102621.38;;;18.75;55.51
72370;BME280;60343;-32.030;115.880;2023-07-20T03:48:58;102609.31;;;18.55;57.21
72370;BME280;60343;-32.030;115.880;2023-07-20T03:51:34;102614.75;;;18.47;55.33
72370;BME280;60343;-32.030;115.880;2023-07-20T03:54:15;102609.38;;;18.39;56.03
72370;BME280;60343;-32.030;115.880;2023-07-20T03:56:50;102608.84;;;18.43;55.51
72370;BME280;60343;-32.030;115.880;2023-07-20T03:59:26;102598.63;;;18.23;57.03
72370;BME280;60343;-32.030;115.880;2023-07-20T04:02:01;102592.91;;;18.18;57.28
72370;BME280;60343;-32.030;115.880;2023-07-20T04:04:37;102595.44;;;18.19;54.99
72370;BME280;60343;-32.030;115.880;2023-07-20T04:07:12;102596.22;;;18.05;57.16
72370;BME280;60343;-32.030;115.880;2023-07-20T04:09:53;102582.56;;;17.90;56.13
72370;BME280;60343;-32.030;115.880;2023-07-20T04:12:29;102585.56;;;17.65;56.86
72370;BME280;60343;-32.030;115.880;2023-07-20T04:15:05;102587.13;;;17.43;58.77
72370;BME280;60343;-32.030;115.880;2023-07-20T04:17:41;102583.13;;;17.23;59.72
72370;BME280;60343;-32.030;115.880;2023-07-20T04:20:16;102586.88;;;17.13;60.19
72370;BME280;60343;-32.030;115.880;2023-07-20T04:22:52;102589.59;;;16.81;62.40
72370;BME280;60343;-32.030;115.880;2023-07-20T04:25:33;102586.19;;;16.95;62.50
72370;BME280;60343;-32.030;115.880;2023-07-20T04:28:09;102579.78;;;17.04;62.38
72370;BME280;60343;-32.030;115.880;2023-07-20T04:30:44;102574.00;;;17.15;62.77
72370;BME280;60343;-32.030;115.880;2023-07-20T04:33:20;102579.69;;;17.37;62.28
72370;BME280;60343;-32.030;115.880;2023-07-20T04:35:56;102572.78;;;17.26;61.25
72370;BME280;60343;-32.030;115.880;2023-07-20T04:38:32;102565.81;;;17.40;62.00
72370;BME280;60343;-32.030;115.880;2023-07-20T04:41:13;102573.75;;;17.49;62.25
72370;BME280;60343;-32.030;115.880;2023-07-20T04:43:49;102572.03;;;17.65;61.57
72370;BME280;60343;-32.030;115.880;2023-07-20T04:46:24;102573.19;;;17.62;60.54
72370;BME280;60343;-32.030;115.880;2023-07-20T04:49:00;102563.22;;;17.54;60.88
72370;BME280;60343;-32.030;115.880;2023-07-20T04:51:36;102565.72;;;17.09;62.67
72370;BME280;60343;-32.030;115.880;2023-07-20T04:54:11;102556.63;;;16.86;63.91
72370;BME280;60343;-32.030;115.880;2023-07-20T04:56:52;102556.47;;;16.79;64.97
72370;BME280;60343;-32.030;115.880;2023-07-20T04:59:28;102551.22;;;16.86;65.55
72370;BME280;60343;-32.030;115.880;2023-07-20T05:02:04;102552.19;;;17.01;66.47
72370;BME280;60343;-32.030;115.880;2023-07-20T05:04:39;102545.94;;;17.08;65.46
72370;BME280;60343;-32.030;115.880;2023-07-20T05:07:14;102547.03;;;17.30;63.87
72370;BME280;60343;-32.030;115.880;2023-07-20T05:09:50;102540.94;;;17.44;63.61
72370;BME280;60343;-32.030;115.880;2023-07-20T05:12:31;102541.72;;;17.61;63.30
72370;BME280;60343;-32.030;115.880;2023-07-20T05:15:07;102542.72;;;17.68;62.33
72370;BME280;60343;-32.030;115.880;2023-07-20T05:17:42;102535.59;;;17.75;63.45
72370;BME280;60343;-32.030;115.880;2023-07-20T05:20:18;102543.44;;;17.93;62.59
72370;BME280;60343;-32.030;115.880;2023-07-20T05:22:53;102544.28;;;17.93;63.12
72370;BME280;60343;-32.030;115.880;2023-07-20T05:25:28;102548.44;;;18.04;61.90
72370;BME280;60343;-32.030;115.880;2023-07-20T05:28:10;102542.69;;;18.30;61.42
72370;BME280;60343;-32.030;115.880;2023-07-20T05:30:45;102543.00;;;18.35;62.03
72370;BME280;60343;-32.030;115.880;2023-07-20T05:33:20;102550.28;;;18.57;60.52
72370;BME280;60343;-32.030;115.880;2023-07-20T05:35:56;102541.78;;;18.60;60.18
72370;BME280;60343;-32.030;115.880;2023-07-20T05:38:32;102544.59;;;18.44;59.62
72370;BME280;60343;-32.030;115.880;2023-07-20T05:41:07;102538.78;;;18.55;59.28
72370;BME280;60343;-32.030;115.880;2023-07-20T05:43:49;102539.66;;;18.48;60.27
72370;BME280;60343;-32.030;115.880;2023-07-20T05:46:24;102542.84;;;18.51;59.93
72370;BME280;60343;-32.030;115.880;2023-07-20T05:49:00;102533.16;;;18.34;60.21
72370;BME280;60343;-32.030;115.880;2023-07-20T05:51:35;102535.44;;;18.45;60.48
72370;BME280;60343;-32.030;115.880;2023-07-20T05:54:11;102529.28;;;18.51;60.01
72370;BME280;60343;-32.030;115.880;2023-07-20T05:56:47;102536.06;;;18.55;60.03
72370;BME280;60343;-32.030;115.880;2023-07-20T05:59:29;102526.00;;;18.64;60.97
72370;BME280;60343;-32.030;115.880;2023-07-20T06:02:04;102526.00;;;18.64;58.54
72370;BME280;60343;-32.030;115.880;2023-07-20T06:04:40;102525.13;;;18.63;59.48
72370;BME280;60343;-32.030;115.880;2023-07-20T06:07:16;102530.88;;;18.68;60.66
72370;BME280;60343;-32.030;115.880;2023-07-20T06:09:51;102531.59;;;18.62;59.97
72370;BME280;60343;-32.030;115.880;2023-07-20T06:12:27;102530.00;;;18.68;59.66
72370;BME280;60343;-32.030;115.880;2023-07-20T06:15:25;102531.25;;;18.65;59.34
72370;BME280;60343;-32.030;115.880;2023-07-20T06:18:00;102530.25;;;18.81;56.30
72370;BME280;60343;-32.030;115.880;2023-07-20T06:20:36;102530.88;;;18.68;58.36
72370;BME280;60343;-32.030;115.880;2023-07-20T06:23:11;102536.06;;;18.55;57.99
72370;BME280;60343;-32.030;115.880;2023-07-20T06:25:47;102536.81;;;18.41;58.88
72370;BME280;60343;-32.030;115.880;2023-07-20T06:28:22;102527.84;;;18.18;60.52
72370;BME280;60343;-32.030;115.880;2023-07-20T06:31:07;102527.47;;;18.21;59.62
72370;BME280;60343;-32.030;115.880;2023-07-20T06:33:41;102528.38;;;18.36;59.17
72370;BME280;60343;-32.030;115.880;2023-07-20T06:36:18;102524.31;;;18.40;59.35
72370;BME280;60343;-32.030;115.880;2023-07-20T06:38:54;102529.06;;;18.38;59.52
72370;BME280;60343;-32.030;115.880;2023-07-20T06:41:30;102529.53;;;18.41;61.53
72370;BME280;60343;-32.030;115.880;2023-07-20T06:44:06;102528.56;;;18.80;59.82
72370;BME280;60343;-32.030;115.880;2023-07-20T06:46:47;102533.34;;;18.93;55.58
72370;BME280;60343;-32.030;115.880;2023-07-20T06:49:29;102533.72;;;19.04;55.83
72370;BME280;60343;-32.030;115.880;2023-07-20T06:52:04;102525.69;;;18.59;57.34
72370;BME280;60343;-32.030;115.880;2023-07-20T06:54:40;102533.16;;;18.34;58.20
72370;BME280;60343;-32.030;115.880;2023-07-20T06:57:16;102531.25;;;18.20;59.39
72370;BME280;60343;-32.030;115.880;2023-07-20T06:59:51;102538.53;;;17.88;59.55
72370;BME280;60343;-32.030;115.880;2023-07-20T07:02:32;102536.97;;;17.63;61.13
72370;BME280;60343;-32.030;115.880;2023-07-20T07:05:08;102534.91;;;17.73;60.73
72370;BME280;60343;-32.030;115.880;2023-07-20T07:07:43;102528.31;;;17.68;60.31
72370;BME280;60343;-32.030;115.880;2023-07-20T07:10:19;102528.81;;;18.02;59.47
72370;BME280;60343;-32.030;115.880;2023-07-20T07:12:54;102527.84;;;18.18;57.19
72370;BME280;60343;-32.030;115.880;2023-07-20T07:15:29;102524.22;;;18.02;56.70
72370;BME280;60343;-32.030;115.880;2023-07-20T07:18:11;102528.78;;;17.79;58.91
72370;BME280;60343;-32.030;115.880;2023-07-20T07:20:57;102533.25;;;17.56;59.37
72370;BME280;60343;-32.030;115.880;2023-07-20T07:23:32;102524.53;;;17.38;59.77
72370;BME280;60343;-32.030;115.880;2023-07-20T07:26:07;102531.97;;;17.36;60.32
72370;BME280;60343;-32.030;115.880;2023-07-20T07:28:43;102534.22;;;17.24;61.05
72370;BME280;60343;-32.030;115.880;2023-07-20T07:31:18;102527.78;;;17.33;61.63
72370;BME280;60343;-32.030;115.880;2023-07-20T07:33:59;102536.53;;;17.35;61.41
72370;BME280;60343;-32.030;115.880;2023-07-20T07:36:35;102531.97;;;17.36;61.48
72370;BME280;60343;-32.030;115.880;2023-07-20T07:39:10;102538.00;;;17.15;62.50
72370;BME280;60343;-32.030;115.880;2023-07-20T07:41:46;102542.91;;;16.95;64.45
72370;BME280;60343;-32.030;115.880;2023-07-20T07:44:21;102547.31;;;16.96;64.59
72370;BME280;60343;-32.030;115.880;2023-07-20T07:46:57;102545.66;;;16.71;66.56
72370;BME280;60343;-32.030;115.880;2023-07-20T07:49:38;102559.84;;;16.65;68.66
72370;BME280;60343;-32.030;115.880;2023-07-20T07:52:15;102565.53;;;16.21;73.96
72370;BME280;60343;-32.030;115.880;2023-07-20T07:54:50;102573.00;;;15.77;77.93
72370;BME280;60343;-32.030;115.880;2023-07-20T07:57:25;102580.44;;;15.50;79.58
72370;BME280;60343;-32.030;115.880;2023-07-20T08:00:01;102583.56;;;15.29;81.23
72370;BME280;60343;-32.030;115.880;2023-07-20T08:02:38;102582.34;;;15.23;80.91
72370;BME280;60343;-32.030;115.880;2023-07-20T08:05:20;102585.59;;;15.09;82.61
72370;BME280;60343;-32.030;115.880;2023-07-20T08:07:55;102581.13;;;15.18;82.59
72370;BME280;60343;-32.030;115.880;2023-07-20T08:10:31;102581.63;;;15.21;84.06
72370;BME280;60343;-32.030;115.880;2023-07-20T08:13:07;102574.75;;;15.27;83.18
72370;BME280;60343;-32.030;115.880;2023-07-20T08:15:48;102580.53;;;15.32;83.84
72370;BME280;60343;-32.030;115.880;2023-07-20T08:18:25;102579.03;;;15.37;83.23
72370;BME280;60343;-32.030;115.880;2023-07-20T08:21:06;102571.63;;;15.39;82.22
72370;BME280;60343;-32.030;115.880;2023-07-20T08:23:41;102579.84;;;15.56;82.22
72370;BME280;60343;-32.030;115.880;2023-07-20T08:26:16;102575.41;;;15.88;81.76
72370;BME280;60343;-32.030;115.880;2023-07-20T08:28:52;102572.25;;;16.01;80.55
72370;BME280;60343;-32.030;115.880;2023-07-20T08:31:27;102567.84;;;16.00;78.32
72370;BME280;60343;-32.030;115.880;2023-07-20T08:34:02;102568.47;;;15.78;78.57
72370;BME280;60343;-32.030;115.880;2023-07-20T08:36:44;102569.25;;;15.62;79.32
72370;BME280;60343;-32.030;115.880;2023-07-20T08:39:19;102571.16;;;15.44;81.07
72370;BME280;60343;-32.030;115.880;2023-07-20T08:41:57;102576.09;;;15.23;81.36
72370;BME280;60343;-32.030;115.880;2023-07-20T08:44:35;102573.13;;;15.08;82.15
72370;BME280;60343;-32.030;115.880;2023-07-20T08:47:11;102563.09;;;14.92;82.75
72370;BME280;60343;-32.030;115.880;2023-07-20T08:49:49;102567.63;;;14.92;83.28
72370;BME280;60343;-32.030;115.880;2023-07-20T08:52:31;102564.41;;;14.88;83.52
72370;BME280;60343;-32.030;115.880;2023-07-20T08:55:07;102560.41;;;14.75;83.99
72370;BME280;60343;-32.030;115.880;2023-07-20T08:57:45;102556.75;;;14.58;84.10
72370;BME280;60343;-32.030;115.880;2023-07-20T09:00:22;102564.22;;;14.46;84.37
72370;BME280;60343;-32.030;115.880;2023-07-20T09:02:58;102553.53;;;14.37;84.81
72370;BME280;60343;-32.030;115.880;2023-07-20T09:05:37;102550.19;;;14.25;84.57
72370;BME280;60343;-32.030;115.880;2023-07-20T09:08:19;102555.78;;;14.14;85.14
72370;BME280;60343;-32.030;115.880;2023-07-20T09:10:54;102560.97;;;14.07;85.52
72370;BME280;60343;-32.030;115.880;2023-07-20T09:13:30;102562.69;;;13.99;85.88
72370;BME280;60343;-32.030;115.880;2023-07-20T09:16:06;102566.41;;;13.98;86.26
72370;BME280;60343;-32.030;115.880;2023-07-20T09:18:42;102574.31;;;13.99;86.41
72370;BME280;60343;-32.030;115.880;2023-07-20T09:21:18;102570.50;;;14.02;87.37
72370;BME280;60343;-32.030;115.880;2023-07-20T09:23:59;102565.38;;;13.99;87.88
72370;BME280;60343;-32.030;115.880;2023-07-20T09:26:41;102568.94;;;13.99;88.05
72370;BME280;60343;-32.030;115.880;2023-07-20T09:29:20;102567.78;;;14.19;88.69
72370;BME280;60343;-32.030;115.880;2023-07-20T09:32:04;102558.56;;;14.22;88.21
72370;BME280;60343;-32.030;115.880;2023-07-20T09:34:39;102565.94;;;14.20;88.06
72370;BME280;60343;-32.030;115.880;2023-07-20T09:37:15;102558.47;;;14.14;88.82
72370;BME280;60343;-32.030;115.880;2023-07-20T09:40:01;102559.19;;;14.16;88.42
72370;BME280;60343;-32.030;115.880;2023-07-20T09:42:38;102570.94;;;14.15;88.68
72370;BME280;60343;-32.030;115.880;2023-07-20T09:45:13;102587.81;;;14.17;89.07
72370;BME280;60343;-32.030;115.880;2023-07-20T09:47:48;102585.19;;;14.25;88.91
72370;BME280;60343;-32.030;115.880;2023-07-20T09:50:24;102593.13;;;14.27;89.04
72370;BME280;60343;-32.030;115.880;2023-07-20T09:53:00;102599.38;;;14.27;88.90
72370;BME280;60343;-32.030;115.880;2023-07-20T09:55:41;102597.75;;;14.16;89.47
72370;BME280;60343;-32.030;115.880;2023-07-20T09:58:17;102597.22;;;14.13;89.34
72370;BME280;60343;-32.030;115.880;2023-07-20T10:00:53;102591.19;;;14.19;88.86
72370;BME280;60343;-32.030;115.880;2023-07-20T10:03:31;102596.41;;;14.03;88.73
72370;BME280;60343;-32.030;115.880;2023-07-20T10:06:10;102604.84;;;13.90;89.53
72370;BME280;60343;-32.030;115.880;2023-07-20T10:08:49;102601.81;;;13.75;89.80
72370;BME280;60343;-32.030;115.880;2023-07-20T10:11:52;102610.06;;;13.64;89.81
72370;BME280;60343;-32.030;115.880;2023-07-20T10:21:13;102614.97;;;13.42;90.92
72370;BME280;60343;-32.030;115.880;2023-07-20T10:27:09;102614.72;;;13.35;90.88
72370;BME280;60343;-32.030;115.880;2023-07-20T10:29:45;102610.72;;;13.39;91.14
72370;BME280;60343;-32.030;115.880;2023-07-20T10:32:21;102609.63;;;13.32;90.92
72370;BME280;60343;-32.030;115.880;2023-07-20T10:34:58;102613.75;;;13.26;91.03
72370;BME280;60343;-32.030;115.880;2023-07-20T10:37:51;102611.94;;;13.17;91.92
72370;BME280;60343;-32.030;115.880;2023-07-20T10:40:33;102613.47;;;13.20;92.34
72370;BME280;60343;-32.030;115.880;2023-07-20T10:43:20;102618.13;;;13.18;92.12
72370;BME280;60343;-32.030;115.880;2023-07-20T10:45:58;102618.56;;;13.13;92.50
72370;BME280;60343;-32.030;115.880;2023-07-20T10:48:33;102622.94;;;13.05;92.12
72370;BME280;60343;-32.030;115.880;2023-07-20T10:51:22;102621.13;;;12.96;92.85
72370;BME280;60343;-32.030;115.880;2023-07-20T10:53:58;102621.69;;;12.89;93.05
72370;BME280;60343;-32.030;115.880;2023-07-20T10:56:36;102629.75;;;12.89;94.05
72370;BME280;60343;-32.030;115.880;2023-07-20T10:59:38;102627.38;;;12.86;93.56
72370;BME280;60343;-32.030;115.880;2023-07-20T11:02:18;102630.19;;;12.85;93.83
72370;BME280;60343;-32.030;115.880;2023-07-20T11:04:54;102636.28;;;12.87;94.32
72370;BME280;60343;-32.030;115.880;2023-07-20T11:07:38;102633.00;;;12.93;94.30
72370;BME280;60343;-32.030;115.880;2023-07-20T11:10:15;102640.63;;;12.98;93.68
72370;BME280;60343;-32.030;115.880;2023-07-20T11:13:17;102645.19;;;13.07;94.72
72370;BME280;60343;-32.030;115.880;2023-07-20T11:16:12;102643.63;;;13.14;94.52
72370;BME280;60343;-32.030;115.880;2023-07-20T11:18:51;102651.13;;;13.20;94.59
72370;BME280;60343;-32.030;115.880;2023-07-20T11:21:27;102655.06;;;13.25;94.80
72370;BME280;60343;-32.030;115.880;2023-07-20T11:24:05;102652.50;;;13.33;93.51
72370;BME280;60343;-32.030;115.880;2023-07-20T11:26:49;102643.41;;;13.44;93.43
72370;BME280;60343;-32.030;115.880;2023-07-20T11:29:24;102648.66;;;13.46;93.21
72370;BME280;60343;-32.030;115.880;2023-07-20T11:32:06;102649.03;;;13.60;93.24
72370;BME280;60343;-32.030;115.880;2023-07-20T11:34:41;102648.94;;;13.52;92.54
72370;BME280;60343;-32.030;115.880;2023-07-20T11:37:21;102655.75;;;13.47;92.91
72370;BME280;60343;-32.030;115.880;2023-07-20T11:39:58;102648.22;;;13.50;93.43
72370;BME280;60343;-32.030;115.880;2023-07-20T11:42:34;102650.19;;;13.48;92.67
72370;BME280;60343;-32.030;115.880;2023-07-20T11:45:11;102649.91;;;13.51;93.27
72370;BME280;60343;-32.030;115.880;2023-07-20T11:47:52;102662.25;;;13.44;92.74
72370;BME280;60343;-32.030;115.880;2023-07-20T11:50:27;102667.22;;;13.39;92.99
72370;BME280;60343;-32.030;115.880;2023-07-20T11:53:03;102673.59;;;13.48;93.22
72370;BME280;60343;-32.030;115.880;2023-07-20T11:55:39;102671.72;;;13.48;93.32
72370;BME280;60343;-32.030;115.880;2023-07-20T11:58:15;102673.00;;;13.44;93.32
72370;BME280;60343;-32.030;115.880;2023-07-20T12:00:52;102680.19;;;13.63;92.72
72370;BME280;60343;-32.030;115.880;2023-07-20T12:03:33;102686.00;;;13.58;92.33
72370;BME280;60343;-32.030;115.880;2023-07-20T12:06:12;102704.41;;;13.63;92.63
72370;BME280;60343;-32.030;115.880;2023-07-20T12:08:48;102704.69;;;13.60;91.82
72370;BME280;60343;-32.030;115.880;2023-07-20T12:11:34;102688.09;;;13.64;92.52
72370;BME280;60343;-32.030;115.880;2023-07-20T12:14:10;102679.53;;;13.51;92.80
72370;BME280;60343;-32.030;115.880;2023-07-20T12:16:51;102680.81;;;13.47;93.63
72370;BME280;60343;-32.030;115.880;2023-07-20T12:19:37;102679.38;;;13.43;93.08
72370;BME280;60343;-32.030;115.880;2023-07-20T12:22:15;102678.72;;;13.31;93.23
72370;BME280;60343;-32.030;115.880;2023-07-20T12:24:55;102678.44;;;13.25;93.82
72370;BME280;60343;-32.030;115.880;2023-07-20T12:27:30;102677.47;;;13.16;94.29
72370;BME280;60343;-32.030;115.880;2023-07-20T12:30:07;102686.22;;;13.18;94.38
72370;BME280;60343;-32.030;115.880;2023-07-20T12:32:43;102689.31;;;13.04;94.51
72370;BME280;60343;-32.030;115.880;2023-07-20T12:35:24;102692.72;;;12.97;94.65
72370;BME280;60343;-32.030;115.880;2023-07-20T12:38:00;102689.44;;;12.93;94.74
72370;BME280;60343;-32.030;115.880;2023-07-20T12:40:36;102693.00;;;12.94;95.18
72370;BME280;60343;-32.030;115.880;2023-07-20T12:43:12;102684.25;;;12.92;95.35
72370;BME280;60343;-32.030;115.880;2023-07-20T12:45:47;102691.03;;;12.86;95.91
72370;BME280;60343;-32.030;115.880;2023-07-20T12:48:23;102687.91;;;12.81;95.31
72370;BME280;60343;-32.030;115.880;2023-07-20T12:51:04;102698.94;;;12.78;95.56
72370;BME280;60343;-32.030;115.880;2023-07-20T12:53:40;102693.53;;;12.68;95.58
72370;BME280;60343;-32.030;115.880;2023-07-20T12:56:18;102697.38;;;12.56;95.38
72370;BME280;60343;-32.030;115.880;2023-07-20T12:58:54;102699.88;;;12.48;95.49
72370;BME280;60343;-32.030;115.880;2023-07-20T13:01:30;102701.13;;;12.34;95.82
72370;BME280;60343;-32.030;115.880;2023-07-20T13:04:06;102708.72;;;12.20;95.66
72370;BME280;60343;-32.030;115.880;2023-07-20T13:06:47;102710.81;;;12.07;96.41
72370;BME280;60343;-32.030;115.880;2023-07-20T13:09:23;102703.53;;;11.97;96.57
72370;BME280;60343;-32.030;115.880;2023-07-20T13:11:58;102705.31;;;11.87;96.58
72370;BME280;60343;-32.030;115.880;2023-07-20T13:14:34;102705.69;;;11.73;96.47
72370;BME280;60343;-32.030;115.880;2023-07-20T13:17:10;102709.03;;;11.66;96.67
72370;BME280;60343;-32.030;115.880;2023-07-20T13:19:45;102716.00;;;11.57;96.30
72370;BME280;60343;-32.030;115.880;2023-07-20T13:22:27;102711.19;;;11.51;96.92
72370;BME280;60343;-32.030;115.880;2023-07-20T13:25:02;102710.34;;;11.50;97.75
72370;BME280;60343;-32.030;115.880;2023-07-20T13:27:38;102711.78;;;11.54;98.15
72370;BME280;60343;-32.030;115.880;2023-07-20T13:30:14;102715.19;;;11.56;98.07